KGSP

KGSP

11665
0
SHARE

註冊歡迎 !, 全球範圍內最大的一個外匯論壇, 在這裡您將能夠找到的最完整和最可靠的外匯信息...
Visual slope indicator: 4-box VASI on right (3.00 degrees glide path) RVR equipment: … KGSP : 050053Z 16004KT 10SM CLR 27/18 A3008 RMK AO2 SLP172 T02670183 KGMU
Implements a curve of type DRAW_HISTOGRAM. Indicators Used: Custom Indicators Used: Order Management characteristics: Other Features: 下載: KGSP.mq4
//+ - //| Digital High Pass (KGHP) Filter | //| Created by newdigital | //| Using the Generator of …

 

二元期權指標 – 下載說明

KGSP is a Metatrader 4 (MT4) 指示燈和外匯指標的本質是把積累的歷史數據.

KGSP provides for an opportunity to detect various peculiarities and patterns in price dynamics which are invisible to the naked eye.

基於該信息, 交易者可以進一步假設價格變動並相應地調整自己的策略.

How to install KGSP.mq4?

  • Download KGSP.mq4
  • Copy KGSP.mq4 to your Metatrader Directory / 專家 / 指標 /
  • 啟動或重新啟動的MetaTrader客戶端
  • 要測試你的指標選擇圖表及時限
  • 搜索 “自定義指標” 在您的瀏覽器大多留在你的MetaTrader客戶端
  • Right click on KGSP.mq4
  • 附加到圖表
  • 修改設置或按確定
  • Indicator KGSP.mq4 is available on your Chart

How to remove KGSP.mq4 from your Metatrader Chart?

  • 選擇哪裡是指示燈在您的MetaTrader客戶端運行圖
  • 右鍵點擊進入圖表
  • “指標清單”
  • 選擇指示器和刪除

點擊這裡下面下載二元期權指標:

KGSP

SHARE
上一篇文章LinearRegSlope V1
下一篇文章KAGI 1

沒有評論

發表評論